createdAt,value
2018-05-11T00:01:27.756Z,59.83
2018-05-11T00:03:56.076Z,60.24
2018-05-11T00:06:24.155Z,60.43
2018-05-11T00:08:52.296Z,60.43
2018-05-11T00:11:21.198Z,61.15
2018-05-11T00:13:50.103Z,60.77
2018-05-11T00:16:18.211Z,60.43
2018-05-11T00:18:46.291Z,60.03
2018-05-11T00:21:15.135Z,60.46
2018-05-11T00:23:43.223Z,60.55
2018-05-11T00:26:11.315Z,60.38
2018-05-11T00:28:39.402Z,60.09
2018-05-11T00:31:09.107Z,59.91
2018-05-11T00:33:37.225Z,59.77
2018-05-11T00:36:05.315Z,59.50
2018-05-11T00:38:33.419Z,59.48
2018-05-11T00:41:01.512Z,59.78
2018-05-11T00:43:29.601Z,59.75
2018-05-11T00:45:58.655Z,60.13
2018-05-11T00:48:31.791Z,60.10
2018-05-11T00:50:59.947Z,60.09
2018-05-11T00:53:28.010Z,59.74
2018-05-11T00:55:56.866Z,59.52
2018-05-11T00:58:24.995Z,59.60
2018-05-11T01:00:53.158Z,59.48
2018-05-11T01:03:22.102Z,59.53
2018-05-11T01:05:50.225Z,59.72
2018-05-11T01:08:18.426Z,59.46
2018-05-11T01:10:47.694Z,59.56
2018-05-11T01:13:15.792Z,59.60
2018-05-11T01:15:43.939Z,59.77
2018-05-11T01:18:13.088Z,59.66
2018-05-11T01:20:41.820Z,59.69
2018-05-11T01:23:09.938Z,59.52
2018-05-11T01:25:38.768Z,59.52
2018-05-11T01:28:06.872Z,59.65
2018-05-11T01:30:36.243Z,59.44
2018-05-11T01:33:04.330Z,59.43
2018-05-11T01:35:32.422Z,60.09
2018-05-11T01:38:01.324Z,59.87
2018-05-11T01:40:29.762Z,59.60
2018-05-11T01:42:58.245Z,59.68
2018-05-11T01:45:26.344Z,59.83
2018-05-11T01:47:54.443Z,60.06
2018-05-11T01:50:22.546Z,59.94
2018-05-11T01:52:50.698Z,60.15
2018-05-11T01:55:19.120Z,60.69
2018-05-11T01:57:47.202Z,60.67
2018-05-11T02:00:15.404Z,60.83
2018-05-11T02:02:44.732Z,60.90
2018-05-11T02:05:12.878Z,60.94
2018-05-11T02:07:41.008Z,61.20
2018-05-11T02:10:15.124Z,62.00
2018-05-11T02:12:43.511Z,62.05
2018-05-11T02:15:11.640Z,62.18
2018-05-11T02:17:39.766Z,62.27
2018-05-11T02:20:08.519Z,61.96
2018-05-11T02:22:37.512Z,62.45
2018-05-11T02:25:06.738Z,61.79
2018-05-11T02:27:35.523Z,61.76
2018-05-11T02:30:04.558Z,61.76
2018-05-11T02:32:32.703Z,61.29
2018-05-11T02:35:01.546Z,61.29
2018-05-11T02:37:29.725Z,61.88
2018-05-11T02:39:58.475Z,62.80
2018-05-11T02:42:27.351Z,63.57
2018-05-11T02:44:55.444Z,63.06
2018-05-11T02:47:23.546Z,62.81
2018-05-11T02:49:57.104Z,62.78
2018-05-11T02:52:25.245Z,63.41
2018-05-11T02:54:53.325Z,63.29
2018-05-11T02:57:21.422Z,63.53
2018-05-11T02:59:50.530Z,63.32
2018-05-11T03:02:19.464Z,62.95
2018-05-11T03:04:53.134Z,62.34
2018-05-11T03:07:21.328Z,62.29
2018-05-11T03:09:50.119Z,62.26
2018-05-11T03:12:18.200Z,62.28
2018-05-11T03:14:46.340Z,63.17
2018-05-11T03:17:14.441Z,63.72
2018-05-11T03:19:42.924Z,65.04
2018-05-11T03:22:11.054Z,64.73
2018-05-11T03:24:39.157Z,66.15
2018-05-11T03:27:07.492Z,66.06
2018-05-11T03:29:35.620Z,65.71
2018-05-11T03:32:03.700Z,65.42
2018-05-11T03:34:31.824Z,65.13
2018-05-11T03:36:59.927Z,65.70
2018-05-11T03:39:28.074Z,65.96
2018-05-11T03:41:56.864Z,66.15
2018-05-11T03:44:24.989Z,66.21
2018-05-11T03:46:53.130Z,68.26
2018-05-11T03:49:21.229Z,68.71
2018-05-11T03:51:49.320Z,68.70
2018-05-11T03:54:17.426Z,68.52
2018-05-11T03:56:46.594Z,67.94
2018-05-11T03:59:14.694Z,67.76
2018-05-11T04:01:54.497Z,67.69
2018-05-11T04:04:34.759Z,67.99
2018-05-11T04:07:14.665Z,68.42
2018-05-11T04:09:42.826Z,67.84
2018-05-11T04:12:10.904Z,68.02
2018-05-11T04:14:39.012Z,68.41
2018-05-11T04:17:07.110Z,68.84
2018-05-11T04:19:35.214Z,69.35
2018-05-11T04:22:03.315Z,68.95
2018-05-11T04:24:31.426Z,68.53
2018-05-11T04:26:59.535Z,68.14
2018-05-11T04:29:28.610Z,69.44
2018-05-11T04:31:57.801Z,69.37
2018-05-11T04:34:25.919Z,69.10
2018-05-11T04:36:54.016Z,68.70
2018-05-11T04:39:27.532Z,67.80
2018-05-11T04:41:56.306Z,67.62
2018-05-11T04:44:24.426Z,67.15
2018-05-11T04:46:53.402Z,67.40
2018-05-11T04:49:21.511Z,66.99
2018-05-11T04:51:49.609Z,66.32
2018-05-11T04:54:17.720Z,66.36
2018-05-11T04:56:45.916Z,65.98
2018-05-11T04:59:14.020Z,65.10
2018-05-11T05:01:42.126Z,65.43
2018-05-11T05:04:10.226Z,65.85
2018-05-11T05:06:38.329Z,65.97
2018-05-11T05:09:06.421Z,66.04
2018-05-11T05:11:34.539Z,65.60
2018-05-11T05:14:02.633Z,66.22
2018-05-11T05:16:30.773Z,66.12
2018-05-11T05:18:58.870Z,65.36
2018-05-11T05:21:27.009Z,65.03
2018-05-11T05:23:56.143Z,64.90
2018-05-11T05:26:24.272Z,64.58
2018-05-11T05:28:52.769Z,64.55
2018-05-11T05:31:20.858Z,64.71
2018-05-11T05:33:49.354Z,64.40
2018-05-11T05:36:17.476Z,64.47
2018-05-11T05:38:46.487Z,64.66
2018-05-11T05:41:14.592Z,64.67
2018-05-11T05:43:42.713Z,64.53
2018-05-11T05:46:11.785Z,64.41
2018-05-11T05:48:40.516Z,64.98
2018-05-11T05:51:08.641Z,65.34
2018-05-11T05:53:36.749Z,64.87
2018-05-11T05:56:04.921Z,65.58
2018-05-11T05:58:33.099Z,65.29
2018-05-11T06:01:01.109Z,64.46
2018-05-11T06:03:29.707Z,64.87
2018-05-11T06:05:57.849Z,64.28
2018-05-11T06:21:26.024Z,61.63
2018-05-11T06:23:54.122Z,59.65
2018-05-11T06:26:22.798Z,58.79
2018-05-11T06:28:50.907Z,58.43
2018-05-11T06:31:19.013Z,58.22
2018-05-11T06:33:47.534Z,58.62
2018-05-11T06:36:15.650Z,58.56
2018-05-11T06:38:43.825Z,58.04
2018-05-11T06:41:11.924Z,57.57
2018-05-11T06:43:40.035Z,57.30
2018-05-11T06:46:08.966Z,56.79
2018-05-11T06:48:37.064Z,56.94
2018-05-11T06:51:05.188Z,56.34
2018-05-11T06:53:33.292Z,54.59
2018-05-11T06:56:01.801Z,52.75
2018-05-11T06:58:30.196Z,51.49
2018-05-11T07:00:58.374Z,50.26
2018-05-11T07:03:26.482Z,49.40
2018-05-11T07:05:54.638Z,47.54
2018-05-11T07:08:23.134Z,44.41
2018-05-11T07:10:51.271Z,43.62
2018-05-11T07:13:19.455Z,43.27
2018-05-11T07:15:47.569Z,43.24
2018-05-11T07:18:15.671Z,43.66
2018-05-11T07:33:43.789Z,40.74
2018-05-11T07:36:11.889Z,40.39
2018-05-11T07:38:39.989Z,40.69
2018-05-11T07:41:08.115Z,41.93
2018-05-11T07:43:36.209Z,40.35
2018-05-11T07:46:04.333Z,41.21
2018-05-11T07:48:32.424Z,42.75
2018-05-11T07:51:00.545Z,41.89
2018-05-11T08:06:29.392Z,36.34
2018-05-11T08:08:57.669Z,38.61
2018-05-11T08:11:25.783Z,39.61
2018-05-11T08:13:53.905Z,39.65
2018-05-11T08:16:22.003Z,41.03
2018-05-11T08:18:50.864Z,41.20
2018-05-11T08:21:19.066Z,42.14
2018-05-11T08:23:47.081Z,42.88
2018-05-11T08:26:16.098Z,42.84
2018-05-11T08:28:44.189Z,43.15
2018-05-11T08:31:12.932Z,43.54
2018-05-11T08:33:41.042Z,40.43
2018-05-11T08:36:09.621Z,41.14
2018-05-11T08:38:38.085Z,42.73
2018-05-11T08:41:06.325Z,43.69
2018-05-11T08:43:34.391Z,44.55
2018-05-11T08:46:02.544Z,44.17
2018-05-11T08:48:30.655Z,44.46
2018-05-11T08:50:58.762Z,44.51
2018-05-11T08:53:27.034Z,45.34
2018-05-11T08:55:55.262Z,45.94
2018-05-11T08:58:23.586Z,46.62
2018-05-11T09:00:51.701Z,45.74
2018-05-11T09:03:19.821Z,46.49
2018-05-11T09:05:47.909Z,45.85
2018-05-11T09:08:16.094Z,46.75
2018-05-11T09:10:44.157Z,47.21
2018-05-11T09:13:12.313Z,46.89
2018-05-11T09:15:40.410Z,47.11
2018-05-11T09:18:08.989Z,46.77
2018-05-11T09:20:37.118Z,45.37
2018-05-11T09:23:05.302Z,44.64
2018-05-11T09:25:33.378Z,43.67
2018-05-11T09:28:01.502Z,42.54
2018-05-11T09:30:29.615Z,41.69
2018-05-11T09:32:58.198Z,41.95
2018-05-11T09:35:26.316Z,42.45
2018-05-11T09:37:54.928Z,42.13
2018-05-11T09:40:23.033Z,42.50
2018-05-11T09:42:51.150Z,41.61
2018-05-11T09:45:19.256Z,40.56
2018-05-11T09:47:48.160Z,40.29
2018-05-11T09:50:16.954Z,40.01
2018-05-11T09:52:45.105Z,40.83
2018-05-11T09:55:13.257Z,39.11
2018-05-11T09:57:46.995Z,38.23
2018-05-11T10:00:26.481Z,37.34
2018-05-11T10:02:54.686Z,38.84
2018-05-11T10:05:22.797Z,38.97
2018-05-11T10:07:51.056Z,39.44
2018-05-11T10:10:19.915Z,42.60
2018-05-11T10:12:48.457Z,43.07
2018-05-11T10:15:16.885Z,43.34
2018-05-11T10:17:45.019Z,42.90
2018-05-11T10:20:13.117Z,41.46
2018-05-11T10:22:41.236Z,41.81
2018-05-11T10:25:09.334Z,42.16
2018-05-11T10:27:43.088Z,43.43
2018-05-11T10:30:16.749Z,45.32
2018-05-11T10:32:44.854Z,42.89
2018-05-11T10:35:13.223Z,42.31
2018-05-11T10:37:41.372Z,43.54
2018-05-11T10:40:09.489Z,42.53
2018-05-11T10:42:37.579Z,42.71
2018-05-11T10:45:05.694Z,41.40
2018-05-11T10:47:33.829Z,43.10
2018-05-11T10:50:01.960Z,44.04
2018-05-11T10:52:31.064Z,44.96
2018-05-11T10:54:59.169Z,43.45
2018-05-11T10:57:27.285Z,42.62
2018-05-11T10:59:55.386Z,43.60
2018-05-11T11:02:23.527Z,45.19
2018-05-11T11:04:51.596Z,43.71
2018-05-11T11:07:19.732Z,45.20
2018-05-11T11:22:47.894Z,44.02
2018-05-11T11:25:16.836Z,44.57
2018-05-11T11:27:44.930Z,45.64
2018-05-11T11:30:13.374Z,44.65
2018-05-11T11:32:41.493Z,44.71
2018-05-11T11:35:09.727Z,45.60
2018-05-11T11:37:37.823Z,44.53
2018-05-11T11:40:05.987Z,42.83
2018-05-11T11:42:34.117Z,43.93
2018-05-11T11:45:02.551Z,43.94
2018-05-11T11:47:31.282Z,43.68
2018-05-11T11:49:59.364Z,43.71
2018-05-11T11:52:27.466Z,43.13
2018-05-11T11:54:55.585Z,43.91
2018-05-11T11:57:23.693Z,43.89
2018-05-11T11:59:51.869Z,44.54
2018-05-11T12:02:19.970Z,44.01
2018-05-11T12:04:48.061Z,44.01
2018-05-11T12:07:16.164Z,44.16
2018-05-11T12:09:44.385Z,44.48
2018-05-11T12:12:12.503Z,44.39
2018-05-11T12:14:40.779Z,44.95
2018-05-11T12:17:08.880Z,43.65
2018-05-11T12:19:36.994Z,43.81
2018-05-11T12:22:05.158Z,44.23
2018-05-11T12:24:33.270Z,44.86
2018-05-11T12:27:01.366Z,45.27
2018-05-11T12:29:30.645Z,45.02
2018-05-11T12:31:58.757Z,44.20
2018-05-11T12:34:26.861Z,43.79
2018-05-11T12:36:54.989Z,44.25
2018-05-11T12:39:23.093Z,44.20
2018-05-11T12:41:51.926Z,44.21
2018-05-11T12:44:20.058Z,45.07
2018-05-11T12:46:48.165Z,45.05
2018-05-11T12:49:21.666Z,44.88
2018-05-11T12:51:50.384Z,44.00
2018-05-11T12:54:18.507Z,44.46
2018-05-11T12:56:47.177Z,44.53
2018-05-11T12:59:15.285Z,44.37
2018-05-11T13:01:43.401Z,44.22
2018-05-11T13:04:11.609Z,44.93
2018-05-11T13:06:39.693Z,44.44
2018-05-11T13:09:07.786Z,44.14
2018-05-11T13:11:35.878Z,44.15
2018-05-11T13:14:04.006Z,43.39
2018-05-11T13:16:32.107Z,43.94
2018-05-11T13:19:00.210Z,44.35
2018-05-11T13:21:33.961Z,43.37
2018-05-11T13:24:02.118Z,43.40
2018-05-11T13:26:30.784Z,44.45
2018-05-11T13:28:58.889Z,43.83
2018-05-11T13:31:27.040Z,43.57
2018-05-11T13:33:55.141Z,44.84
2018-05-11T13:36:23.689Z,45.17
2018-05-11T13:38:51.762Z,43.76
2018-05-11T13:41:20.435Z,44.36
2018-05-11T13:43:48.567Z,43.77
2018-05-11T13:46:16.657Z,43.89
2018-05-11T13:48:44.765Z,44.03
2018-05-11T13:51:13.740Z,43.48
2018-05-11T13:53:41.892Z,43.70
2018-05-11T13:56:10.033Z,44.03
2018-05-11T13:58:38.149Z,43.88
2018-05-11T14:01:06.256Z,43.80
2018-05-11T14:03:34.434Z,45.03
2018-05-11T14:06:02.526Z,44.01
2018-05-11T14:08:30.635Z,44.34
2018-05-11T14:10:58.744Z,44.06
2018-05-11T14:13:26.921Z,43.81
2018-05-11T14:15:55.077Z,44.06
2018-05-11T14:18:23.957Z,44.27
2018-05-11T14:20:52.080Z,44.32
2018-05-11T14:23:20.184Z,42.58
2018-05-11T14:25:48.314Z,43.63
2018-05-11T14:28:16.422Z,43.66
2018-05-11T14:30:44.537Z,43.19
2018-05-11T14:33:12.626Z,42.64
2018-05-11T14:48:40.832Z,44.32
2018-05-11T14:51:09.072Z,45.11
2018-05-11T14:53:37.196Z,44.60
2018-05-11T14:56:05.357Z,44.80
2018-05-11T14:58:33.485Z,44.08
2018-05-11T15:01:01.598Z,44.27
2018-05-11T15:03:29.769Z,44.24
2018-05-11T15:05:57.921Z,43.68
2018-05-11T15:08:26.125Z,44.11
2018-05-11T15:10:55.071Z,43.75
2018-05-11T15:13:23.164Z,43.90
2018-05-11T15:15:51.290Z,44.11
2018-05-11T15:18:19.436Z,44.75
2018-05-11T15:20:47.549Z,44.08
2018-05-11T15:23:16.516Z,44.69
2018-05-11T15:25:45.358Z,44.22
2018-05-11T15:28:13.454Z,43.86
2018-05-11T15:30:41.588Z,43.80
2018-05-11T15:33:09.706Z,45.32
2018-05-11T15:35:37.808Z,43.89
2018-05-11T15:38:05.951Z,43.20
2018-05-11T15:40:34.750Z,43.12
2018-05-11T15:43:02.868Z,43.39
2018-05-11T15:45:30.998Z,43.46
2018-05-11T16:01:00.246Z,43.38
2018-05-11T16:03:28.363Z,43.67
2018-05-11T16:05:56.697Z,43.15
2018-05-11T16:08:25.068Z,43.03
2018-05-11T16:10:53.216Z,43.08
2018-05-11T16:13:21.318Z,43.20
2018-05-11T16:15:51.374Z,42.25
2018-05-11T16:18:20.239Z,42.08
2018-05-11T16:20:48.336Z,42.78
2018-05-11T16:23:16.440Z,42.74
2018-05-11T16:25:44.595Z,42.41
2018-05-11T16:28:12.904Z,42.59
2018-05-11T16:30:40.946Z,42.96
2018-05-11T16:33:09.096Z,43.46
2018-05-11T16:35:37.209Z,43.69
2018-05-11T16:38:05.362Z,43.58
2018-05-11T16:40:33.521Z,42.96
2018-05-11T16:43:01.616Z,43.05
2018-05-11T16:45:29.723Z,42.78
2018-05-11T17:00:57.860Z,43.55
2018-05-11T17:03:26.012Z,43.53
2018-05-11T17:05:54.112Z,43.59
2018-05-11T17:08:22.238Z,43.53
2018-05-11T17:10:50.370Z,44.03
2018-05-11T17:13:18.482Z,43.86
2018-05-11T17:15:46.649Z,44.21
2018-05-11T17:18:14.749Z,44.34
2018-05-11T17:20:42.857Z,44.32
2018-05-11T17:23:11.625Z,44.58
2018-05-11T17:25:39.749Z,44.64
2018-05-11T17:28:07.920Z,44.76
2018-05-11T17:30:36.028Z,44.50
2018-05-11T17:33:04.150Z,44.76
2018-05-11T17:35:32.260Z,45.29
2018-05-11T17:38:00.384Z,45.14
2018-05-11T17:40:28.494Z,45.18
2018-05-11T17:42:56.590Z,45.10
2018-05-11T17:45:24.694Z,45.26
2018-05-11T17:47:52.834Z,44.56
2018-05-11T17:50:26.430Z,44.72
2018-05-11T17:52:54.474Z,44.83
2018-05-11T17:55:22.578Z,44.84
2018-05-11T17:57:50.732Z,45.02
2018-05-11T18:00:18.837Z,45.10
2018-05-11T18:02:52.506Z,45.21
2018-05-11T18:05:20.606Z,45.50
2018-05-11T18:07:48.716Z,45.46
2018-05-11T18:10:16.871Z,45.25
2018-05-11T18:12:45.231Z,45.34
2018-05-11T18:15:13.578Z,45.09
2018-05-11T18:17:42.573Z,45.15
2018-05-11T18:20:16.222Z,45.21
2018-05-11T18:22:50.025Z,45.50
2018-05-11T18:25:18.120Z,45.61
2018-05-11T18:27:46.225Z,45.73
2018-05-11T18:39:59.341Z,46.33
2018-05-11T18:42:33.057Z,46.09
2018-05-11T18:45:01.241Z,46.09
2018-05-11T18:47:29.335Z,46.32
2018-05-11T18:49:57.479Z,46.50
2018-05-11T18:52:25.593Z,46.83
2018-05-11T18:54:53.772Z,47.23
2018-05-11T18:57:21.932Z,48.03
2018-05-11T18:59:50.047Z,48.48
2018-05-11T19:02:18.218Z,49.14
2018-05-11T19:04:46.352Z,49.55
2018-05-11T19:07:14.452Z,49.96
2018-05-11T19:09:42.572Z,50.06
2018-05-11T19:12:10.986Z,50.35
2018-05-11T19:14:39.178Z,50.50
2018-05-11T19:17:07.279Z,50.77
2018-05-11T19:19:35.412Z,50.87
2018-05-11T19:22:03.554Z,51.19
2018-05-11T19:24:31.678Z,51.49
2018-05-11T19:26:59.850Z,51.69
2018-05-11T19:29:27.957Z,51.46
2018-05-11T19:31:56.078Z,51.64
2018-05-11T19:34:24.181Z,51.85
2018-05-11T19:36:52.298Z,52.02
2018-05-11T19:39:20.408Z,51.96
2018-05-11T19:41:48.523Z,52.07
2018-05-11T19:44:16.645Z,51.93
2018-05-11T19:46:44.771Z,52.12
2018-05-11T19:49:13.182Z,52.13
2018-05-11T19:51:41.281Z,52.12
2018-05-11T19:54:09.410Z,52.27
2018-05-11T19:56:38.247Z,51.96
2018-05-11T19:59:06.355Z,52.05
2018-05-11T20:01:34.725Z,52.12
2018-05-11T20:04:02.839Z,52.17
2018-05-11T20:06:30.985Z,51.99
2018-05-11T20:08:59.621Z,52.06
2018-05-11T20:11:27.724Z,52.05
2018-05-11T20:13:55.816Z,52.15
2018-05-11T20:16:23.941Z,52.12
2018-05-11T20:18:52.736Z,52.13
2018-05-11T20:21:20.841Z,52.15
2018-05-11T20:23:48.956Z,51.83
2018-05-11T20:26:17.545Z,51.99
2018-05-11T20:28:47.371Z,52.13
2018-05-11T20:31:16.321Z,52.27
2018-05-11T20:33:44.857Z,52.37
2018-05-11T20:36:12.968Z,52.33
2018-05-11T20:38:41.064Z,52.52
2018-05-11T20:41:09.173Z,52.63
2018-05-11T20:43:37.295Z,52.71
2018-05-11T20:46:05.389Z,52.81
2018-05-11T20:48:33.489Z,52.82
2018-05-11T20:51:02.098Z,53.00
2018-05-11T20:53:30.237Z,53.04
2018-05-11T20:55:58.317Z,52.91
2018-05-11T20:58:26.422Z,53.10
2018-05-11T21:00:54.553Z,53.18
2018-05-11T21:03:22.663Z,53.24
2018-05-11T21:05:50.765Z,53.38
2018-05-11T21:08:18.921Z,53.25
2018-05-11T21:10:47.112Z,53.40
2018-05-11T21:13:15.253Z,53.41
2018-05-11T21:15:43.801Z,53.29
2018-05-11T21:18:11.948Z,53.41
2018-05-11T21:20:40.057Z,53.29
2018-05-11T21:23:13.137Z,53.22
2018-05-11T21:25:41.233Z,53.57
2018-05-11T21:28:10.203Z,53.59
2018-05-11T21:30:38.321Z,53.76
2018-05-11T21:33:06.413Z,53.75
2018-05-11T21:35:34.533Z,53.78
2018-05-11T21:38:02.637Z,54.02
2018-05-11T21:40:30.744Z,54.08
2018-05-11T21:42:58.860Z,54.06
2018-05-11T21:45:26.982Z,54.07
2018-05-11T21:47:55.088Z,54.21
2018-05-11T21:50:24.155Z,54.12
2018-05-11T21:52:57.701Z,54.14
2018-05-11T21:55:31.493Z,54.19
2018-05-11T21:57:59.592Z,53.78
2018-05-11T22:00:27.693Z,54.05
2018-05-11T22:02:56.133Z,53.93
2018-05-11T22:05:24.265Z,54.14
2018-05-11T22:07:53.319Z,53.90
2018-05-11T22:10:21.437Z,53.84
2018-05-11T22:12:49.936Z,53.50
2018-05-11T22:15:18.088Z,53.52
2018-05-11T22:17:46.221Z,53.43
2018-05-11T22:20:14.351Z,53.25
2018-05-11T22:22:43.433Z,53.60
2018-05-11T22:25:11.540Z,53.36
2018-05-11T22:27:39.632Z,53.66
2018-05-11T22:30:07.751Z,53.36
2018-05-11T22:32:36.600Z,53.48
2018-05-11T22:35:04.705Z,53.29
2018-05-11T22:37:33.704Z,53.25
2018-05-11T22:40:02.615Z,53.47
2018-05-11T22:42:30.748Z,53.77
2018-05-11T22:44:58.871Z,53.78
2018-05-11T22:47:26.968Z,53.90
2018-05-11T23:02:55.818Z,54.02
2018-05-11T23:05:24.844Z,53.92
2018-05-11T23:07:53.401Z,53.96
2018-05-11T23:10:21.526Z,54.15
2018-05-11T23:12:49.637Z,54.05
2018-05-11T23:15:17.751Z,54.48
2018-05-11T23:17:45.876Z,54.41
2018-05-11T23:20:14.057Z,54.36
2018-05-11T23:22:42.147Z,54.39
2018-05-11T23:25:10.239Z,54.20
2018-05-11T23:27:38.351Z,54.47
2018-05-11T23:30:06.473Z,54.42
2018-05-11T23:32:35.261Z,54.14
2018-05-11T23:35:03.380Z,54.37
2018-05-11T23:37:31.531Z,54.25
2018-05-11T23:40:05.130Z,53.99
2018-05-11T23:42:33.237Z,54.20
2018-05-11T23:45:01.361Z,54.02
2018-05-11T23:47:29.463Z,54.17
2018-05-11T23:49:57.903Z,54.55
2018-05-11T23:52:26.037Z,54.70
2018-05-11T23:54:54.377Z,55.02
2018-05-11T23:57:22.464Z,55.35
2018-05-11T23:59:50.570Z,55.80
